Time;durP1;ratioP1;P1;durP2;ratioP2;P2;SDS_P1;SDS_P2;PMS_P1;PMS_P2;Temp;Humidity;BMP_temperature;BMP_pressure;BME280_temperature;BME280_humidity;BME280_pressure;Samples;Min_cycle;Max_cycle;Signal;HPM_P1;HPM_P2
2024/02/12 00:01:59;;;;;;;15.90;8.50;;;;;;;9.64;100.00;98366.13;111492;1210;97629;-70
2024/02/12 00:04:29;;;;;;;15.10;8.00;;;;;;;9.61;100.00;98366.91;111465;1210;96445;-70
2024/02/12 00:06:57;;;;;;;16.20;7.70;;;;;;;9.59;100.00;98364.15;111397;1206;138936;-70
2024/02/12 00:09:24;;;;;;;11.40;7.00;;;;;;;9.60;100.00;98369.25;111438;1211;111012;-69
2024/02/12 00:11:50;;;;;;;13.60;7.80;;;;;;;9.60;100.00;98368.05;111399;1211;139050;-70
2024/02/12 00:14:16;;;;;;;12.90;7.60;;;;;;;9.59;100.00;98370.56;111525;1208;98428;-69
2024/02/12 00:16:42;;;;;;;11.40;7.00;;;;;;;9.57;100.00;98369.34;111598;1210;97744;-70
2024/02/12 00:19:08;;;;;;;13.10;7.10;;;;;;;9.55;100.00;98365.54;111398;1210;138632;-69
2024/02/12 00:21:34;;;;;;;12.20;7.30;;;;;;;9.56;100.00;98372.77;111486;1205;97130;-70
2024/02/12 00:24:00;;;;;;;11.00;6.90;;;;;;;9.56;100.00;98374.57;111423;1210;139409;-69
2024/02/12 00:26:25;;;;;;;12.70;7.60;;;;;;;9.53;100.00;98372.44;111582;1210;97611;-70
2024/02/12 00:28:56;;;;;;;13.00;7.40;;;;;;;9.53;100.00;98373.38;111496;1205;96627;-69
2024/02/12 00:31:22;;;;;;;12.90;6.90;;;;;;;9.54;100.00;98375.09;111379;1205;139749;-69
2024/02/12 00:33:48;;;;;;;13.10;6.70;;;;;;;9.51;100.00;98377.61;111354;1207;97857;-70
2024/02/12 00:36:17;;;;;;;10.50;6.50;;;;;;;9.49;100.00;98382.60;111513;1208;139075;-68
2024/02/12 00:38:44;;;;;;;10.90;6.90;;;;;;;9.48;100.00;98379.12;111113;1210;111404;-70
2024/02/12 00:41:13;;;;;;;8.80;5.90;;;;;;;9.44;100.00;98381.13;111376;1206;97696;-70
2024/02/12 00:43:42;;;;;;;8.50;5.90;;;;;;;9.43;100.00;98380.13;111384;1210;138342;-67
2024/02/12 00:46:08;;;;;;;10.60;6.50;;;;;;;9.41;100.00;98378.35;111107;1205;97664;-68
2024/02/12 00:48:37;;;;;;;10.20;6.20;;;;;;;9.42;100.00;98379.52;110754;1205;138805;-68
2024/02/12 00:51:03;;;;;;;10.80;6.20;;;;;;;9.46;100.00;98381.56;110954;1210;111818;-69
2024/02/12 00:53:28;;;;;;;9.30;6.10;;;;;;;9.44;100.00;98383.83;110755;1205;139435;-69
2024/02/12 00:55:55;;;;;;;9.20;6.40;;;;;;;9.41;100.00;98384.03;110969;1210;98061;-70
2024/02/12 00:58:22;;;;;;;9.20;5.90;;;;;;;9.40;100.00;98380.53;110843;1210;98088;-69
2024/02/12 01:00:49;;;;;;;10.30;6.30;;;;;;;9.41;100.00;98382.98;110959;1207;138561;-68
2024/02/12 01:03:14;;;;;;;9.30;6.00;;;;;;;9.40;100.00;98381.45;110944;1210;97681;-69
2024/02/12 01:05:41;;;;;;;9.90;5.80;;;;;;;9.42;100.00;98384.88;110798;1208;138467;-69
2024/02/12 01:08:07;;;;;;;15.60;6.50;;;;;;;9.42;100.00;98387.87;110942;1220;97707;-69
2024/02/12 01:10:33;;;;;;;7.60;4.80;;;;;;;9.41;100.00;98385.80;110885;1206;97621;-69
2024/02/12 01:12:58;;;;;;;9.50;5.50;;;;;;;9.43;100.00;98389.98;110896;1210;138480;-69
2024/02/12 01:15:24;;;;;;;10.40;5.70;;;;;;;9.42;100.00;98385.08;110927;1212;97591;-69
2024/02/12 01:17:50;;;;;;;13.80;4.70;;;;;;;9.41;100.00;98387.44;110932;1211;139887;-69
2024/02/12 01:20:16;;;;;;;7.50;4.90;;;;;;;9.40;100.00;98389.85;111098;1213;97799;-69
2024/02/12 01:22:42;;;;;;;8.00;5.30;;;;;;;9.39;100.00;98387.06;110877;1211;111177;-69
2024/02/12 01:25:07;;;;;;;6.20;4.30;;;;;;;9.33;100.00;98388.25;110778;1210;138577;-69
2024/02/12 01:27:33;;;;;;;8.30;5.00;;;;;;;9.30;100.00;98386.45;111582;1209;97583;-69
2024/02/12 01:29:58;;;;;;;5.50;3.80;;;;;;;9.31;100.00;98386.63;111457;1205;138664;-69
2024/02/12 01:32:24;;;;;;;8.40;4.50;;;;;;;9.32;100.00;98386.52;111560;1206;97648;-69
2024/02/12 01:34:49;;;;;;;8.10;4.00;;;;;;;9.32;100.00;98390.46;111510;1208;97589;-69
2024/02/12 01:37:15;;;;;;;7.20;4.40;;;;;;;9.31;100.00;98392.98;111330;1208;139512;-68
2024/02/12 01:39:40;;;;;;;6.60;4.20;;;;;;;9.27;100.00;98389.71;111517;1206;97598;-69
2024/02/12 01:42:12;;;;;;;8.00;4.50;;;;;;;9.22;100.00;98390.64;111407;1210;138889;-69
2024/02/12 01:44:48;;;;;;;7.10;4.30;;;;;;;9.21;100.00;98395.55;111695;1210;96589;-69
2024/02/12 01:47:15;;;;;;;10.10;4.00;;;;;;;9.20;100.00;98394.34;111489;1205;110031;-69
2024/02/12 01:49:42;;;;;;;7.90;4.30;;;;;;;9.21;100.00;98399.81;111378;1210;138719;-69
2024/02/12 01:52:10;;;;;;;7.10;4.40;;;;;;;9.21;100.00;98399.28;111456;1209;97584;-69
2024/02/12 01:54:38;;;;;;;7.00;4.30;;;;;;;9.20;100.00;98400.05;111305;1210;138858;-69
2024/02/12 01:57:05;;;;;;;7.00;4.50;;;;;;;9.19;100.00;98403.15;111561;1206;99055;-68
2024/02/12 01:59:31;;;;;;;6.60;4.50;;;;;;;9.15;100.00;98405.59;111336;1210;138455;-69
2024/02/12 02:01:56;;;;;;;12.40;4.20;;;;;;;9.09;100.00;98406.19;111471;1208;98033;-68
2024/02/12 02:04:23;;;;;;;8.30;4.30;;;;;;;9.05;100.00;98405.80;111494;1210;97732;-68
2024/02/12 02:06:55;;;;;;;5.70;3.90;;;;;;;9.03;100.00;98405.27;111454;1208;138703;-69
2024/02/12 02:09:21;;;;;;;6.70;4.50;;;;;;;9.05;100.00;98409.89;111514;1208;111140;-69
2024/02/12 02:11:46;;;;;;;9.30;4.50;;;;;;;9.04;100.00;98416.20;111343;1207;138787;-69
2024/02/12 02:14:13;;;;;;;7.70;5.20;;;;;;;9.00;100.00;98415.94;111530;1206;97690;-69
2024/02/12 02:16:39;;;;;;;9.10;4.70;;;;;;;8.98;100.00;98417.02;111594;1210;97684;-68
2024/02/12 02:19:05;;;;;;;6.30;4.80;;;;;;;8.98;100.00;98419.27;111409;1210;138404;-69
2024/02/12 02:21:30;;;;;;;7.30;4.40;;;;;;;8.98;100.00;98417.52;111541;1209;97812;-69
2024/02/12 02:23:59;;;;;;;6.50;4.50;;;;;;;8.97;100.00;98423.69;111408;1208;139283;-69
2024/02/12 02:26:30;;;;;;;7.90;5.20;;;;;;;8.93;100.00;98425.36;111459;1210;97616;-68
2024/02/12 02:28:58;;;;;;;8.00;5.00;;;;;;;8.88;100.00;98425.95;111557;1210;111661;-69
2024/02/12 02:31:23;;;;;;;8.00;5.20;;;;;;;8.83;100.00;98429.48;111379;1210;139533;-68
2024/02/12 02:33:49;;;;;;;10.00;4.80;;;;;;;8.76;100.00;98437.42;111511;1207;99464;-69
2024/02/12 02:36:14;;;;;;;7.10;4.60;;;;;;;8.72;100.00;98438.06;111464;1208;139096;-69
2024/02/12 02:38:40;;;;;;;6.90;4.50;;;;;;;8.70;100.00;98441.42;111458;1210;97704;-68
2024/02/12 02:41:05;;;;;;;7.80;3.70;;;;;;;8.66;100.00;98452.60;111482;1210;102301;-69
2024/02/12 02:43:31;;;;;;;5.10;3.30;;;;;;;8.58;100.00;98458.02;111363;1211;139666;-69
2024/02/12 02:45:59;;;;;;;6.00;3.70;;;;;;;8.52;100.00;98454.34;111509;1210;98031;-69
2024/02/12 02:48:25;;;;;;;4.90;3.10;;;;;;;8.47;100.00;98464.63;111362;1210;138516;-69
2024/02/12 02:50:52;;;;;;;4.00;2.70;;;;;;;8.39;100.00;98461.59;111544;1208;97681;-69
2024/02/12 02:53:18;;;;;;;4.50;2.70;;;;;;;8.34;100.00;98461.08;111449;1210;97587;-69
2024/02/12 02:55:43;;;;;;;3.50;2.60;;;;;;;8.28;100.00;98466.41;111480;1206;138092;-69
2024/02/12 02:58:08;;;;;;;2.90;2.00;;;;;;;8.24;100.00;98469.70;111442;1211;96530;-69
2024/02/12 03:00:36;;;;;;;5.80;2.30;;;;;;;8.19;100.00;98467.43;111417;1208;139228;-69
2024/02/12 03:03:03;;;;;;;4.60;2.50;;;;;;;8.15;100.00;98474.95;111472;1208;97716;-69
2024/02/12 03:05:29;;;;;;;3.00;2.20;;;;;;;8.13;100.00;98478.83;111366;1209;139635;-70
2024/02/12 03:07:55;;;;;;;3.40;1.90;;;;;;;8.12;100.00;98477.84;111505;1208;97677;-69
2024/02/12 03:10:20;;;;;;;4.10;2.30;;;;;;;8.08;100.00;98481.27;111499;1211;97571;-69
2024/02/12 03:12:46;;;;;;;4.00;2.40;;;;;;;8.04;100.00;98483.38;111427;1220;138924;-70
2024/02/12 03:15:14;;;;;;;3.60;2.40;;;;;;;7.99;100.00;98487.98;111536;1211;97678;-69
2024/02/12 03:17:44;;;;;;;2.80;2.20;;;;;;;7.93;100.00;98484.83;111431;1208;139093;-69
2024/02/12 03:20:11;;;;;;;3.60;2.50;;;;;;;7.90;100.00;98488.20;111523;1210;99409;-69
2024/02/12 03:22:40;;;;;;;3.80;2.40;;;;;;;7.89;100.00;98489.73;111606;1206;107548;-69
2024/02/12 03:25:08;;;;;;;2.60;1.80;;;;;;;7.84;100.00;98491.47;110963;1211;138857;-69
2024/02/12 03:27:34;;;;;;;4.30;2.90;;;;;;;7.80;100.00;98495.27;111150;1210;97791;-69
2024/02/12 03:30:00;;;;;;;5.50;2.50;;;;;;;7.79;100.00;98498.61;110874;1210;140657;-68
2024/02/12 03:32:25;;;;;;;3.70;2.50;;;;;;;7.77;100.00;98495.86;110957;1211;98686;-69
2024/02/12 03:34:50;;;;;;;3.90;2.60;;;;;;;7.80;100.00;98498.52;110943;1211;98269;-69
2024/02/12 03:37:19;;;;;;;2.90;2.20;;;;;;;7.80;100.00;98498.33;110835;1210;138579;-68
2024/02/12 03:39:45;;;;;;;3.60;2.80;;;;;;;7.81;100.00;98501.07;110959;1207;97762;-69
2024/02/12 03:42:11;;;;;;;6.20;3.40;;;;;;;7.83;100.00;98504.17;110924;1209;138655;-68
2024/02/12 03:44:37;;;;;;;4.20;2.90;;;;;;;7.79;100.00;98505.14;110973;1210;99568;-68
2024/02/12 03:47:04;;;;;;;4.40;2.80;;;;;;;7.79;100.00;98504.48;110947;1207;97998;-68
2024/02/12 04:00:25;;;;;;;4.50;2.50;;;;;;;7.84;100.00;98515.82;110753;1213;139560;-69
2024/02/12 04:02:50;;;;;;;5.50;2.90;;;;;;;7.84;100.00;98521.35;110985;1209;97777;-68
2024/02/12 04:05:17;;;;;;;7.10;3.00;;;;;;;7.81;100.00;98523.87;111074;1210;97340;-68
2024/02/12 04:07:43;;;;;;;4.90;3.10;;;;;;;7.82;100.00;98524.48;110772;1221;140524;-69
2024/02/12 04:10:10;;;;;;;3.90;2.70;;;;;;;7.83;100.00;98528.67;110964;1207;97639;-68
2024/02/12 04:12:41;;;;;;;5.60;3.30;;;;;;;7.84;100.00;98534.13;110901;1210;138623;-69
2024/02/12 04:15:15;;;;;;;4.40;2.90;;;;;;;7.82;100.00;98530.70;110917;1219;98662;-69
2024/02/12 04:17:41;;;;;;;4.40;2.70;;;;;;;7.82;100.00;98535.31;110756;1211;140409;-68
2024/02/12 04:20:10;;;;;;;4.20;2.90;;;;;;;7.82;100.00;98535.15;111095;1210;97656;-68
2024/02/12 04:22:35;;;;;;;4.30;2.50;;;;;;;7.79;100.00;98538.35;110912;1211;97600;-68
2024/02/12 04:25:01;;;;;;;2.80;2.20;;;;;;;7.79;100.00;98537.72;110818;1210;138472;-68
2024/02/12 04:27:28;;;;;;;2.80;1.90;;;;;;;7.77;100.00;98541.77;110967;1219;97600;-68
2024/02/12 04:29:53;;;;;;;6.20;2.20;;;;;;;7.75;100.00;98543.98;110842;1208;138650;-68
2024/02/12 04:32:19;;;;;;;3.30;2.00;;;;;;;7.70;100.00;98544.90;110917;1211;97696;-68
2024/02/12 04:34:44;;;;;;;2.80;1.70;;;;;;;7.67;100.00;98550.58;111166;1211;97591;-69
2024/02/12 04:37:11;;;;;;;2.80;2.10;;;;;;;7.64;100.00;98550.58;110827;1211;138895;-68
2024/02/12 04:39:38;;;;;;;2.40;1.70;;;;;;;7.60;100.00;98549.09;110870;1211;97687;-68
2024/02/12 04:42:04;;;;;;;2.80;2.00;;;;;;;7.57;100.00;98549.98;110914;1211;138712;-68
2024/02/12 04:44:30;;;;;;;2.10;1.70;;;;;;;7.56;100.00;98553.81;111004;1206;97664;-68
2024/02/12 04:46:58;;;;;;;2.00;1.80;;;;;;;7.55;100.00;98552.98;110873;1210;108016;-68
2024/02/12 04:49:24;;;;;;;2.00;1.80;;;;;;;7.52;100.00;98549.60;110789;1211;140205;-68
2024/02/12 04:51:49;;;;;;;2.90;1.80;;;;;;;7.48;100.00;98551.83;111007;1217;97557;-68
2024/02/12 04:54:14;;;;;;;2.40;1.90;;;;;;;7.45;100.00;98554.15;110897;1206;139044;-68
2024/02/12 04:56:42;;;;;;;2.00;1.80;;;;;;;7.44;100.00;98558.11;110843;1212;97655;-68
2024/02/12 04:59:12;;;;;;;3.00;1.50;;;;;;;7.41;100.00;98562.23;110883;1211;97673;-68
2024/02/12 05:01:38;;;;;;;2.70;1.80;;;;;;;7.39;100.00;98564.27;110773;1209;138513;-68
2024/02/12 05:04:04;;;;;;;5.50;1.60;;;;;;;7.41;100.00;98564.19;110974;1210;97722;-68
2024/02/12 05:06:32;;;;;;;3.30;2.40;;;;;;;7.42;100.00;98569.08;110886;1210;140188;-68
2024/02/12 05:08:57;;;;;;;5.30;2.30;;;;;;;7.42;100.00;98567.82;110984;1207;97633;-68
2024/02/12 05:11:25;;;;;;;2.10;1.90;;;;;;;7.42;100.00;98570.87;110984;1211;98508;-69
2024/02/12 05:13:53;;;;;;;2.10;1.70;;;;;;;7.42;100.00;98573.69;110806;1208;139159;-68
2024/02/12 05:16:29;;;;;;;3.00;2.10;;;;;;;7.43;100.00;98573.30;110809;1212;99795;-69
2024/02/12 05:24:22;;;;;;;3.50;2.20;;;;;;;7.38;100.00;98581.27;110699;1209;138478;-69
2024/02/12 05:26:49;;;;;;;3.30;2.20;;;;;;;7.39;100.00;98588.79;110931;1210;97658;-69
2024/02/12 05:29:14;;;;;;;2.30;1.70;;;;;;;7.37;100.00;98591.63;111054;1206;99235;-68
2024/02/12 05:31:41;;;;;;;2.40;2.00;;;;;;;7.33;100.00;98593.61;110779;1213;138564;-68
2024/02/12 05:34:06;;;;;;;8.70;2.80;;;;;;;7.29;100.00;98595.84;111033;1209;97574;-69
2024/02/12 05:36:32;;;;;;;3.50;2.50;;;;;;;7.26;100.00;98598.34;110889;1206;139489;-69
2024/02/12 05:38:58;;;;;;;2.90;2.20;;;;;;;7.26;100.00;98595.17;110981;1212;107757;-69
2024/02/12 05:41:23;;;;;;;4.90;2.30;;;;;;;7.26;100.00;98599.44;110873;1211;98511;-69
2024/02/12 05:43:49;;;;;;;2.50;2.20;;;;;;;7.24;100.00;98596.55;110867;1206;138453;-68
2024/02/12 05:46:15;;;;;;;3.20;2.00;;;;;;;7.23;100.00;98601.19;110866;1211;98138;-69
2024/02/12 05:48:40;;;;;;;3.10;2.20;;;;;;;7.24;100.00;98604.50;110778;1207;139275;-69
2024/02/12 05:51:09;;;;;;;3.50;2.50;;;;;;;7.22;100.00;98609.27;110646;1218;98139;-69
2024/02/12 05:53:34;;;;;;;2.80;2.30;;;;;;;7.18;100.00;98610.21;110219;1206;139488;-69
2024/02/12 05:56:01;;;;;;;3.00;2.10;;;;;;;7.18;100.00;98612.15;110519;1206;97702;-68
2024/02/12 05:58:26;;;;;;;3.80;2.60;;;;;;;7.18;100.00;98613.55;110436;1211;98480;-69
2024/02/12 06:00:53;;;;;;;3.90;2.60;;;;;;;7.20;100.00;98616.83;110287;1215;139987;-69
2024/02/12 06:03:18;;;;;;;2.80;2.10;;;;;;;7.19;100.00;98621.68;110504;1205;97604;-69
2024/02/12 06:05:44;;;;;;;3.30;2.70;;;;;;;7.20;100.00;98621.27;110463;1221;138750;-69
2024/02/12 06:08:10;;;;;;;4.10;2.10;;;;;;;7.23;100.00;98625.04;110884;1211;97652;-68
2024/02/12 06:10:36;;;;;;;3.90;2.80;;;;;;;7.23;100.00;98631.43;110652;1210;98435;-68
2024/02/12 06:13:02;;;;;;;5.60;2.70;;;;;;;7.22;100.00;98628.63;110945;1207;138439;-68
2024/02/12 06:15:28;;;;;;;4.70;2.60;;;;;;;7.20;100.00;98635.68;110796;1212;109517;-68
2024/02/12 06:17:53;;;;;;;4.50;2.30;;;;;;;7.20;100.00;98638.38;110873;1211;139790;-69
2024/02/12 06:20:19;;;;;;;4.10;2.50;;;;;;;7.20;100.00;98638.52;110892;1213;98611;-69
2024/02/12 06:22:44;;;;;;;4.80;2.30;;;;;;;7.20;100.00;98644.21;110909;1212;97652;-68
2024/02/12 06:25:12;;;;;;;3.00;2.20;;;;;;;7.21;100.00;98641.30;110827;1210;138492;-69
2024/02/12 06:27:37;;;;;;;2.70;2.00;;;;;;;7.20;100.00;98647.56;110871;1212;98021;-68
2024/02/12 06:30:03;;;;;;;3.60;2.50;;;;;;;7.20;100.00;98650.58;110809;1210;140497;-69
2024/02/12 06:32:29;;;;;;;5.10;2.70;;;;;;;7.20;100.00;98653.07;110945;1212;97706;-69
2024/02/12 06:34:55;;;;;;;5.10;2.40;;;;;;;7.19;100.00;98657.56;110908;1223;97661;-68
2024/02/12 06:37:21;;;;;;;4.60;2.30;;;;;;;7.20;100.00;98660.92;110711;1211;138718;-69
2024/02/12 06:39:46;;;;;;;4.20;1.90;;;;;;;7.21;100.00;98665.82;111005;1207;97651;-69
2024/02/12 06:42:11;;;;;;;4.40;1.80;;;;;;;7.20;100.00;98669.77;110815;1218;140479;-68
2024/02/12 06:44:37;;;;;;;3.90;1.90;;;;;;;7.19;100.00;98670.20;110880;1220;97694;-69
2024/02/12 06:47:04;;;;;;;3.40;2.00;;;;;;;7.16;100.00;98671.23;110958;1209;97581;-68
2024/02/12 06:49:29;;;;;;;3.80;2.20;;;;;;;7.14;100.00;98674.38;110891;1206;138466;-68
2024/02/12 06:51:54;;;;;;;3.00;2.40;;;;;;;7.13;100.00;98681.02;110920;1212;97627;-68
2024/02/12 06:54:20;;;;;;;5.50;2.60;;;;;;;7.10;100.00;98681.58;110798;1212;138435;-68
2024/02/12 06:56:45;;;;;;;4.80;3.00;;;;;;;7.08;100.00;98682.93;110378;1206;97723;-69
2024/02/12 06:59:10;;;;;;;5.60;2.80;;;;;;;7.09;100.00;98684.13;110327;1212;97581;-68
2024/02/12 07:01:38;;;;;;;3.60;2.40;;;;;;;7.11;100.00;98690.23;110678;1212;140023;-68
2024/02/12 07:04:04;;;;;;;3.70;2.60;;;;;;;7.11;100.00;98691.63;110951;1212;97605;-68
2024/02/12 07:06:31;;;;;;;3.80;2.20;;;;;;;7.13;100.00;98695.23;110711;1212;138585;-68
2024/02/12 07:08:56;;;;;;;3.20;2.00;;;;;;;7.15;100.00;98699.36;110911;1221;97317;-68
2024/02/12 07:11:22;;;;;;;2.80;2.10;;;;;;;7.15;100.00;98698.10;111002;1212;97580;-68
2024/02/12 07:13:48;;;;;;;4.40;2.20;;;;;;;7.14;100.00;98703.54;110857;1212;138623;-68
2024/02/12 07:16:18;;;;;;;6.00;2.10;;;;;;;7.13;100.00;98703.91;110900;1221;99782;-68
2024/02/12 07:18:47;;;;;;;2.90;1.90;;;;;;;7.12;100.00;98705.98;110756;1211;138339;-68
2024/02/12 07:21:13;;;;;;;2.80;2.00;;;;;;;7.12;100.00;98709.67;111026;1212;107289;-68
2024/02/12 07:23:39;;;;;;;3.50;2.10;;;;;;;7.12;100.00;98712.18;110792;1208;138777;-68
2024/02/12 07:26:04;;;;;;;3.80;2.30;;;;;;;7.11;100.00;98710.11;111029;1206;97604;-68
2024/02/12 07:28:30;;;;;;;4.10;2.20;;;;;;;7.11;100.00;98717.04;110851;1210;99093;-68
2024/02/12 07:30:56;;;;;;;3.90;2.30;;;;;;;7.10;100.00;98720.65;110784;1212;139621;-69
2024/02/12 07:33:21;;;;;;;2.80;2.30;;;;;;;7.10;100.00;98719.56;110975;1206;98686;-68
2024/02/12 07:35:47;;;;;;;5.20;2.40;;;;;;;7.11;100.00;98718.45;110746;1221;138947;-68
2024/02/12 07:38:12;;;;;;;4.70;2.50;;;;;;;7.11;100.00;98720.04;110919;1212;97763;-68
2024/02/12 07:40:37;;;;;;;3.10;2.50;;;;;;;7.11;100.00;98719.13;110831;1212;99913;-67
2024/02/12 07:43:05;;;;;;;3.80;2.60;;;;;;;7.12;100.00;98722.45;110868;1212;139232;-67
2024/02/12 07:45:33;;;;;;;4.30;2.90;;;;;;;7.13;100.00;98724.19;111003;1212;97605;-68
2024/02/12 07:47:58;;;;;;;3.50;2.70;;;;;;;7.13;100.00;98731.48;110946;1212;140134;-69
2024/02/12 07:50:23;;;;;;;3.10;2.00;;;;;;;7.14;100.00;98728.05;110875;1212;97691;-68
2024/02/12 07:52:49;;;;;;;2.40;1.80;;;;;;;7.17;100.00;98728.77;110856;1206;97649;-68
2024/02/12 07:55:14;;;;;;;5.00;3.70;;;;;;;7.18;100.00;98732.44;110750;1212;139984;-68
2024/02/12 07:57:44;;;;;;;8.30;3.10;;;;;;;7.18;100.00;98738.44;110866;1206;97666;-68
2024/02/12 08:00:14;;;;;;;5.00;2.70;;;;;;;7.19;100.00;98738.20;110816;1208;138771;-68
2024/02/12 08:02:43;;;;;;;3.50;2.30;;;;;;;7.21;100.00;98743.27;110876;1209;97729;-68
2024/02/12 08:05:09;;;;;;;3.30;2.20;;;;;;;7.22;100.00;98743.38;111062;1210;111207;-68
2024/02/12 08:07:35;;;;;;;3.40;2.40;;;;;;;7.20;100.00;98748.10;110761;1222;138714;-68
2024/02/12 08:10:01;;;;;;;3.20;2.50;;;;;;;7.16;100.00;98752.23;110917;1206;97977;-68
2024/02/12 08:12:26;;;;;;;4.10;1.90;;;;;;;7.15;100.00;98748.60;110930;1209;137780;-68
2024/02/12 08:14:51;;;;;;;3.70;2.30;;;;;;;7.16;100.00;98756.84;110912;1206;98093;-67
2024/02/12 08:17:17;;;;;;;5.80;2.40;;;;;;;7.15;100.00;98756.02;110957;1206;99075;-67
2024/02/12 08:19:42;;;;;;;2.60;1.90;;;;;;;7.14;100.00;98759.10;110918;1208;139918;-67
2024/02/12 08:22:07;;;;;;;4.50;2.60;;;;;;;7.17;100.00;98763.91;111601;1206;97675;-67
2024/02/12 08:24:33;;;;;;;3.60;2.40;;;;;;;7.17;100.00;98769.23;110780;1215;140141;-67
2024/02/12 08:26:58;;;;;;;4.80;2.40;;;;;;;7.19;100.00;98772.48;110997;1218;98420;-68
2024/02/12 08:29:24;;;;;;;3.60;2.10;;;;;;;7.19;100.00;98775.54;110959;1206;99914;-67
2024/02/12 08:31:49;;;;;;;3.90;2.40;;;;;;;7.19;100.00;98774.63;111234;1212;138491;-68
2024/02/12 08:34:15;;;;;;;5.80;2.70;;;;;;;7.21;100.00;98778.07;111658;1209;97832;-71
2024/02/12 08:36:44;;;;;;;3.80;2.10;;;;;;;7.23;100.00;98781.13;111374;1206;139067;-71
2024/02/12 08:39:13;;;;;;;3.80;2.70;;;;;;;7.21;100.00;98786.79;111538;1212;98117;-71
2024/02/12 08:41:39;;;;;;;4.20;2.60;;;;;;;7.19;100.00;98782.44;111425;1207;139113;-72
2024/02/12 08:44:05;;;;;;;5.70;3.00;;;;;;;7.18;100.00;98789.61;111528;1211;97922;-72
2024/02/12 08:46:32;;;;;;;2.80;2.10;;;;;;;7.14;100.00;98792.50;111616;1206;97606;-71
2024/02/12 08:48:57;;;;;;;4.90;3.20;;;;;;;7.12;100.00;98793.88;111416;1206;139376;-70
2024/02/12 08:51:22;;;;;;;4.30;2.60;;;;;;;7.10;100.00;98798.61;111487;1211;97579;-70
2024/02/12 08:53:49;;;;;;;4.50;2.30;;;;;;;7.10;100.00;98800.75;111416;1210;138808;-69
2024/02/12 08:56:23;;;;;;;4.20;2.20;;;;;;;7.10;100.00;98799.50;111538;1206;97645;-69
2024/02/12 08:58:48;;;;;;;2.30;1.60;;;;;;;7.12;100.00;98815.55;111458;1206;97555;-69
2024/02/12 09:01:17;;;;;;;2.60;1.80;;;;;;;7.11;100.00;98818.80;111444;1210;138574;-70
2024/02/12 09:03:43;;;;;;;5.10;1.90;;;;;;;7.11;100.00;98821.28;111485;1208;97652;-71
2024/02/12 09:06:15;;;;;;;5.60;2.00;;;;;;;7.12;100.00;98817.15;111441;1212;138712;-71
2024/02/12 09:08:46;;;;;;;4.20;1.30;;;;;;;7.11;100.00;98824.11;111464;1210;97720;-69
2024/02/12 09:11:12;;;;;;;3.10;1.60;;;;;;;7.13;100.00;98822.75;111624;1212;97702;-69
2024/02/12 09:13:46;;;;;;;3.80;2.00;;;;;;;7.15;100.00;98829.23;111245;1212;138672;-70
2024/02/12 09:16:13;;;;;;;4.50;2.40;;;;;;;7.15;100.00;98837.75;111525;1206;100850;-69
2024/02/12 09:18:39;;;;;;;4.70;3.00;;;;;;;7.14;100.00;98848.44;111374;1219;138715;-71
2024/02/12 09:21:05;;;;;;;5.90;2.60;;;;;;;7.15;100.00;98852.10;111489;1206;97670;-69
2024/02/12 09:23:31;;;;;;;3.70;2.20;;;;;;;7.15;100.00;98848.22;111681;1206;97603;-72
2024/02/12 09:25:56;;;;;;;3.50;1.70;;;;;;;7.15;100.00;98855.15;111432;1222;138166;-69
2024/02/12 09:28:26;;;;;;;4.20;1.80;;;;;;;7.14;100.00;98867.65;111465;1211;97647;-69
2024/02/12 09:30:54;;;;;;;3.90;2.20;;;;;;;7.12;100.00;98856.20;111369;1206;139018;-68
2024/02/12 09:33:21;;;;;;;5.50;2.80;;;;;;;7.12;100.00;98861.56;111645;1212;97684;-70
2024/02/12 09:35:47;;;;;;;5.30;3.20;;;;;;;7.11;100.00;98862.69;111339;1212;138593;-69
2024/02/12 09:38:16;;;;;;;6.50;2.90;;;;;;;7.12;100.00;98864.04;111513;1206;97664;-69
2024/02/12 09:40:42;;;;;;;4.70;2.60;;;;;;;7.15;100.00;98871.33;111426;1208;98418;-69
2024/02/12 09:43:11;;;;;;;4.60;2.10;;;;;;;7.16;100.00;98865.75;111433;1212;141849;-70
2024/02/12 09:45:44;;;;;;;8.60;2.80;;;;;;;7.19;100.00;98875.91;111509;1209;97614;-69
2024/02/12 09:48:15;;;;;;;3.80;2.00;;;;;;;7.19;100.00;98881.77;111376;1212;139924;-69
2024/02/12 09:50:45;;;;;;;5.20;2.60;;;;;;;7.20;100.00;98878.70;111513;1206;97623;-69
2024/02/12 09:53:16;;;;;;;3.90;2.30;;;;;;;7.22;100.00;98881.78;111512;1212;107387;-69
2024/02/12 09:55:44;;;;;;;4.80;2.20;;;;;;;7.19;100.00;98889.20;111359;1209;138797;-69
2024/02/12 09:58:10;;;;;;;3.50;2.20;;;;;;;7.17;100.00;98885.96;111463;1206;97599;-68
2024/02/12 10:00:36;;;;;;;3.30;2.20;;;;;;;7.15;100.00;98886.38;111289;1210;138722;-70
2024/02/12 10:03:01;;;;;;;4.00;1.90;;;;;;;7.17;100.00;98890.04;111540;1209;97665;-70
2024/02/12 10:05:29;;;;;;;3.00;1.90;;;;;;;7.19;100.00;98892.55;111453;1206;97686;-69
2024/02/12 10:07:56;;;;;;;5.30;2.10;;;;;;;7.19;100.00;98896.31;111391;1206;138438;-69
2024/02/12 10:10:22;;;;;;;4.60;2.40;;;;;;;7.19;100.00;98898.64;111315;1207;97593;-70
2024/02/12 10:12:52;;;;;;;3.10;2.20;;;;;;;7.17;100.00;98900.51;111389;1212;138749;-70
2024/02/12 10:15:19;;;;;;;3.10;2.20;;;;;;;7.17;100.00;98899.98;111497;1211;107515;-69
2024/02/12 10:17:46;;;;;;;3.20;2.20;;;;;;;7.16;100.00;98893.98;111331;1206;138893;-69
2024/02/12 10:20:11;;;;;;;4.00;2.50;;;;;;;7.16;100.00;98897.36;111558;1206;98493;-71
2024/02/12 10:22:39;;;;;;;3.80;2.30;;;;;;;7.17;100.00;98893.75;111438;1206;98342;-70
2024/02/12 10:25:05;;;;;;;4.10;3.00;;;;;;;7.17;100.00;98897.11;111254;1206;140395;-69
2024/02/12 10:27:30;;;;;;;4.20;2.70;;;;;;;7.21;100.00;98896.21;111397;1210;97782;-71
2024/02/12 10:29:58;;;;;;;3.80;2.60;;;;;;;7.24;100.00;98900.14;111403;1206;139358;-69
2024/02/12 10:32:24;;;;;;;2.80;2.00;;;;;;;7.26;100.00;98901.44;111418;1212;103305;-70
2024/02/12 10:34:53;;;;;;;2.60;2.00;;;;;;;7.25;100.00;98902.17;111469;1206;97626;-69
2024/02/12 10:37:24;;;;;;;5.20;2.70;;;;;;;7.23;100.00;98901.05;111278;1207;138833;-70
2024/02/12 10:39:51;;;;;;;2.80;1.70;;;;;;;7.24;100.00;98907.38;111542;1209;97697;-69
2024/02/12 10:42:24;;;;;;;2.30;1.60;;;;;;;7.25;100.00;98913.02;111303;1206;139310;-70
2024/02/12 10:44:50;;;;;;;4.10;2.20;;;;;;;7.25;100.00;98914.96;111401;1212;99298;-69
2024/02/12 10:47:21;;;;;;;2.60;1.50;;;;;;;7.26;100.00;98917.24;111427;1210;97603;-69
2024/02/12 10:49:47;;;;;;;3.40;2.30;;;;;;;7.26;100.00;98916.00;111345;1212;138820;-69
2024/02/12 10:52:15;;;;;;;2.90;1.70;;;;;;;7.27;100.00;98920.92;111377;1206;97649;-68
2024/02/12 10:54:45;;;;;;;3.20;1.90;;;;;;;7.29;100.00;98925.04;111248;1206;138478;-68
2024/02/12 10:57:12;;;;;;;2.90;1.70;;;;;;;7.31;100.00;98922.12;111462;1207;98507;-64
2024/02/12 10:59:38;;;;;;;3.10;1.80;;;;;;;7.33;100.00;98928.21;111566;1210;107433;-67
2024/02/12 11:02:10;;;;;;;2.20;1.60;;;;;;;7.33;100.00;98936.39;111360;1206;140088;-67
2024/02/12 11:04:41;;;;;;;;;;;;;;;7.29;100.00;98936.56;111023;1206;97585;-65
2024/02/12 11:07:28;;;;;;;1.60;1.10;;;;;;;7.26;100.00;98933.58;111198;1212;124907;-65
2024/02/12 11:10:03;;;;;;;2.20;1.40;;;;;;;7.26;100.00;98933.21;110952;1212;99840;-69
2024/02/12 11:12:33;;;;;;;4.40;1.60;;;;;;;7.26;100.00;98943.55;111260;1209;138599;-67
2024/02/12 11:14:59;;;;;;;1.90;1.30;;;;;;;7.26;100.00;98941.93;111435;1206;97579;-67
2024/02/12 11:17:27;;;;;;;1.70;1.30;;;;;;;7.26;100.00;98950.08;111449;1206;97601;-66
2024/02/12 11:19:53;;;;;;;1.50;1.20;;;;;;;7.26;100.00;98948.69;111462;1206;138290;-67
2024/02/12 11:22:29;;;;;;;1.50;1.30;;;;;;;7.26;100.00;98954.17;111456;1212;97745;-67
2024/02/12 11:25:01;;;;;;;2.70;1.60;;;;;;;7.24;100.00;98952.70;111426;1212;138576;-67
2024/02/12 11:27:39;;;;;;;2.10;1.50;;;;;;;7.22;100.00;98951.22;111411;1206;97517;-67
2024/02/12 11:30:08;;;;;;;3.80;1.80;;;;;;;7.23;100.00;98955.40;111355;1211;138752;-67
2024/02/12 11:32:42;;;;;;;3.00;1.60;;;;;;;7.23;100.00;98952.59;111394;1209;111410;-67
2024/02/12 11:35:12;;;;;;;3.20;1.80;;;;;;;7.22;100.00;98958.11;111470;1210;97536;-67
2024/02/12 11:37:43;;;;;;;3.10;1.60;;;;;;;7.21;100.00;98962.14;111412;1219;138425;-67